sensor_id;sensor_type;location;lat;lon;timestamp;temperature;humidity
13164;DHT22;6647;53.688;10.746;2023-05-19T00:00:37;10.20;99.90
13164;DHT22;6647;53.688;10.746;2023-05-19T00:01:58;10.20;99.90
13164;DHT22;6647;53.688;10.746;2023-05-19T00:03:25;10.20;99.90
13164;DHT22;6647;53.688;10.746;2023-05-19T00:04:47;10.20;99.90
13164;DHT22;6647;53.688;10.746;2023-05-19T00:06:09;10.20;99.90
13164;DHT22;6647;53.688;10.746;2023-05-19T00:07:30;10.20;99.90
13164;DHT22;6647;53.688;10.746;2023-05-19T00:08:56;10.20;99.90
13164;DHT22;6647;53.688;10.746;2023-05-19T00:10:18;10.20;99.90
13164;DHT22;6647;53.688;10.746;2023-05-19T00:11:39;10.20;99.90
13164;DHT22;6647;53.688;10.746;2023-05-19T00:13:00;10.20;99.90
13164;DHT22;6647;53.688;10.746;2023-05-19T00:14:21;10.10;99.90
13164;DHT22;6647;53.688;10.746;2023-05-19T00:15:42;10.10;99.90
13164;DHT22;6647;53.688;10.746;2023-05-19T00:17:04;10.00;99.90
13164;DHT22;6647;53.688;10.746;2023-05-19T00:18:25;10.10;99.90
13164;DHT22;6647;53.688;10.746;2023-05-19T00:19:46;10.00;99.90
13164;DHT22;6647;53.688;10.746;2023-05-19T00:21:07;10.00;99.90
13164;DHT22;6647;53.688;10.746;2023-05-19T00:22:27;10.00;99.90
13164;DHT22;6647;53.688;10.746;2023-05-19T00:23:48;10.00;99.90
13164;DHT22;6647;53.688;10.746;2023-05-19T00:25:09;10.00;99.90
13164;DHT22;6647;53.688;10.746;2023-05-19T00:26:30;10.00;99.90
13164;DHT22;6647;53.688;10.746;2023-05-19T00:27:51;10.00;99.90
13164;DHT22;6647;53.688;10.746;2023-05-19T00:29:12;10.00;99.90
13164;DHT22;6647;53.688;10.746;2023-05-19T00:30:37;10.00;99.90
13164;DHT22;6647;53.688;10.746;2023-05-19T00:31:58;10.00;99.90
13164;DHT22;6647;53.688;10.746;2023-05-19T00:33:19;10.00;99.90
13164;DHT22;6647;53.688;10.746;2023-05-19T00:34:40;10.00;99.90
13164;DHT22;6647;53.688;10.746;2023-05-19T00:36:02;9.90;99.90
13164;DHT22;6647;53.688;10.746;2023-05-19T00:37:23;9.90;99.90
13164;DHT22;6647;53.688;10.746;2023-05-19T00:38:44;9.90;99.90
13164;DHT22;6647;53.688;10.746;2023-05-19T00:40:05;9.80;99.90
13164;DHT22;6647;53.688;10.746;2023-05-19T00:41:27;9.80;99.90
13164;DHT22;6647;53.688;10.746;2023-05-19T00:42:48;9.80;99.90
13164;DHT22;6647;53.688;10.746;2023-05-19T00:44:09;9.80;99.90
13164;DHT22;6647;53.688;10.746;2023-05-19T00:45:30;9.80;99.90
13164;DHT22;6647;53.688;10.746;2023-05-19T00:46:51;9.90;99.90
13164;DHT22;6647;53.688;10.746;2023-05-19T00:48:12;9.90;99.90
13164;DHT22;6647;53.688;10.746;2023-05-19T00:49:34;9.90;99.90
13164;DHT22;6647;53.688;10.746;2023-05-19T00:50:56;9.90;99.90
13164;DHT22;6647;53.688;10.746;2023-05-19T00:52:26;9.90;99.90
13164;DHT22;6647;53.688;10.746;2023-05-19T00:53:47;9.90;99.90
13164;DHT22;6647;53.688;10.746;2023-05-19T00:55:11;9.90;99.90
13164;DHT22;6647;53.688;10.746;2023-05-19T00:56:33;9.90;99.90
13164;DHT22;6647;53.688;10.746;2023-05-19T00:57:55;9.90;99.90
13164;DHT22;6647;53.688;10.746;2023-05-19T00:59:16;9.90;99.90
13164;DHT22;6647;53.688;10.746;2023-05-19T01:00:37;9.90;99.90
13164;DHT22;6647;53.688;10.746;2023-05-19T01:01:59;9.90;99.90
13164;DHT22;6647;53.688;10.746;2023-05-19T01:03:22;9.90;99.90
13164;DHT22;6647;53.688;10.746;2023-05-19T01:04:44;9.90;99.90
13164;DHT22;6647;53.688;10.746;2023-05-19T01:06:05;9.90;99.90
13164;DHT22;6647;53.688;10.746;2023-05-19T01:07:27;10.00;99.90
13164;DHT22;6647;53.688;10.746;2023-05-19T01:08:48;10.00;99.90
13164;DHT22;6647;53.688;10.746;2023-05-19T01:10:10;10.00;99.90
13164;DHT22;6647;53.688;10.746;2023-05-19T01:11:31;9.90;99.90
13164;DHT22;6647;53.688;10.746;2023-05-19T01:12:52;9.90;99.90
13164;DHT22;6647;53.688;10.746;2023-05-19T01:14:13;9.90;99.90
13164;DHT22;6647;53.688;10.746;2023-05-19T01:17:47;10.00;99.90
13164;DHT22;6647;53.688;10.746;2023-05-19T01:19:37;10.00;99.90
13164;DHT22;6647;53.688;10.746;2023-05-19T01:26:27;9.90;99.90
13164;DHT22;6647;53.688;10.746;2023-05-19T01:31:26;9.90;99.90
13164;DHT22;6647;53.688;10.746;2023-05-19T01:32:50;9.90;99.90
13164;DHT22;6647;53.688;10.746;2023-05-19T01:34:13;9.90;99.90
13164;DHT22;6647;53.688;10.746;2023-05-19T01:35:37;9.90;99.90
13164;DHT22;6647;53.688;10.746;2023-05-19T01:37:00;9.90;99.90
13164;DHT22;6647;53.688;10.746;2023-05-19T01:38:21;9.90;99.90
13164;DHT22;6647;53.688;10.746;2023-05-19T01:39:44;10.00;99.90
13164;DHT22;6647;53.688;10.746;2023-05-19T01:41:06;9.90;99.90
13164;DHT22;6647;53.688;10.746;2023-05-19T01:42:28;9.90;99.90
13164;DHT22;6647;53.688;10.746;2023-05-19T01:43:49;9.90;99.90
13164;DHT22;6647;53.688;10.746;2023-05-19T01:45:11;9.90;99.90
13164;DHT22;6647;53.688;10.746;2023-05-19T01:46:32;9.90;99.90
13164;DHT22;6647;53.688;10.746;2023-05-19T01:47:56;9.90;99.90
13164;DHT22;6647;53.688;10.746;2023-05-19T01:49:17;9.90;99.90
13164;DHT22;6647;53.688;10.746;2023-05-19T01:50:40;9.90;99.90
13164;DHT22;6647;53.688;10.746;2023-05-19T01:52:01;9.90;99.90
13164;DHT22;6647;53.688;10.746;2023-05-19T01:53:23;9.90;99.90
13164;DHT22;6647;53.688;10.746;2023-05-19T01:54:44;9.90;99.90
13164;DHT22;6647;53.688;10.746;2023-05-19T01:56:05;9.90;99.90
13164;DHT22;6647;53.688;10.746;2023-05-19T01:58:58;9.90;99.90
13164;DHT22;6647;53.688;10.746;2023-05-19T02:02:31;9.80;99.90
13164;DHT22;6647;53.688;10.746;2023-05-19T02:04:38;9.70;99.90
13164;DHT22;6647;53.688;10.746;2023-05-19T02:06:22;9.80;99.90
13164;DHT22;6647;53.688;10.746;2023-05-19T02:08:00;9.80;99.90
13164;DHT22;6647;53.688;10.746;2023-05-19T02:09:33;9.80;99.90
13164;DHT22;6647;53.688;10.746;2023-05-19T02:10:59;9.80;99.90
13164;DHT22;6647;53.688;10.746;2023-05-19T02:12:32;9.80;99.90
13164;DHT22;6647;53.688;10.746;2023-05-19T02:13:55;9.80;99.90
13164;DHT22;6647;53.688;10.746;2023-05-19T02:15:20;9.80;99.90
13164;DHT22;6647;53.688;10.746;2023-05-19T02:16:44;9.80;99.90
13164;DHT22;6647;53.688;10.746;2023-05-19T02:18:09;9.80;99.90
13164;DHT22;6647;53.688;10.746;2023-05-19T02:19:33;9.80;99.90
13164;DHT22;6647;53.688;10.746;2023-05-19T02:20:54;9.80;99.90
13164;DHT22;6647;53.688;10.746;2023-05-19T02:22:15;9.80;99.90
13164;DHT22;6647;53.688;10.746;2023-05-19T02:23:36;9.80;99.90
13164;DHT22;6647;53.688;10.746;2023-05-19T02:24:57;9.80;99.90
13164;DHT22;6647;53.688;10.746;2023-05-19T02:26:18;9.80;99.90
13164;DHT22;6647;53.688;10.746;2023-05-19T02:27:40;9.80;99.90
13164;DHT22;6647;53.688;10.746;2023-05-19T02:29:01;9.80;99.90
13164;DHT22;6647;53.688;10.746;2023-05-19T02:30:22;9.80;99.90
13164;DHT22;6647;53.688;10.746;2023-05-19T02:31:43;9.80;99.90
13164;DHT22;6647;53.688;10.746;2023-05-19T02:33:04;9.80;99.90
13164;DHT22;6647;53.688;10.746;2023-05-19T02:34:26;9.80;99.90
13164;DHT22;6647;53.688;10.746;2023-05-19T02:35:46;9.80;99.90
13164;DHT22;6647;53.688;10.746;2023-05-19T02:37:07;9.80;99.90
13164;DHT22;6647;53.688;10.746;2023-05-19T02:38:28;9.80;99.90
13164;DHT22;6647;53.688;10.746;2023-05-19T02:39:50;9.80;99.90
13164;DHT22;6647;53.688;10.746;2023-05-19T02:41:10;9.80;99.90
13164;DHT22;6647;53.688;10.746;2023-05-19T02:42:31;9.80;99.90
13164;DHT22;6647;53.688;10.746;2023-05-19T02:43:52;9.80;99.90
13164;DHT22;6647;53.688;10.746;2023-05-19T02:45:13;9.80;99.90
13164;DHT22;6647;53.688;10.746;2023-05-19T02:46:34;9.80;99.90
13164;DHT22;6647;53.688;10.746;2023-05-19T02:47:55;9.80;99.90
13164;DHT22;6647;53.688;10.746;2023-05-19T02:49:16;9.80;99.90
13164;DHT22;6647;53.688;10.746;2023-05-19T02:50:37;9.80;99.90
13164;DHT22;6647;53.688;10.746;2023-05-19T02:51:58;9.80;99.90
13164;DHT22;6647;53.688;10.746;2023-05-19T02:53:19;9.80;99.90
13164;DHT22;6647;53.688;10.746;2023-05-19T02:54:39;9.80;99.90
13164;DHT22;6647;53.688;10.746;2023-05-19T02:56:00;9.70;99.90
13164;DHT22;6647;53.688;10.746;2023-05-19T02:57:21;9.70;99.90
13164;DHT22;6647;53.688;10.746;2023-05-19T02:58:42;9.70;99.90
13164;DHT22;6647;53.688;10.746;2023-05-19T03:00:03;9.70;99.90
13164;DHT22;6647;53.688;10.746;2023-05-19T03:01:28;9.70;99.90
13164;DHT22;6647;53.688;10.746;2023-05-19T03:02:49;9.70;99.90
13164;DHT22;6647;53.688;10.746;2023-05-19T03:04:12;9.70;99.90
13164;DHT22;6647;53.688;10.746;2023-05-19T03:05:33;9.70;99.90
13164;DHT22;6647;53.688;10.746;2023-05-19T03:06:54;9.70;99.90
13164;DHT22;6647;53.688;10.746;2023-05-19T03:08:15;9.70;99.90
13164;DHT22;6647;53.688;10.746;2023-05-19T03:09:36;9.70;99.90
13164;DHT22;6647;53.688;10.746;2023-05-19T03:10:57;9.60;99.90
13164;DHT22;6647;53.688;10.746;2023-05-19T03:12:18;9.60;99.90
13164;DHT22;6647;53.688;10.746;2023-05-19T03:13:39;9.60;99.90
13164;DHT22;6647;53.688;10.746;2023-05-19T03:15:00;9.60;99.90
13164;DHT22;6647;53.688;10.746;2023-05-19T03:16:21;9.60;99.90
13164;DHT22;6647;53.688;10.746;2023-05-19T03:17:42;9.60;99.90
13164;DHT22;6647;53.688;10.746;2023-05-19T03:19:03;9.60;99.90
13164;DHT22;6647;53.688;10.746;2023-05-19T03:20:24;9.60;99.90
13164;DHT22;6647;53.688;10.746;2023-05-19T03:21:44;9.60;99.90
13164;DHT22;6647;53.688;10.746;2023-05-19T03:23:06;9.60;99.90
13164;DHT22;6647;53.688;10.746;2023-05-19T03:24:28;9.60;99.90
13164;DHT22;6647;53.688;10.746;2023-05-19T03:25:49;9.60;99.90
13164;DHT22;6647;53.688;10.746;2023-05-19T03:27:11;9.60;99.90
13164;DHT22;6647;53.688;10.746;2023-05-19T03:28:32;9.50;99.90
13164;DHT22;6647;53.688;10.746;2023-05-19T03:29:53;9.50;99.90
13164;DHT22;6647;53.688;10.746;2023-05-19T03:31:13;9.60;99.90
13164;DHT22;6647;53.688;10.746;2023-05-19T03:32:35;9.60;99.90
13164;DHT22;6647;53.688;10.746;2023-05-19T03:33:59;9.50;99.90
13164;DHT22;6647;53.688;10.746;2023-05-19T03:35:21;9.50;99.90
13164;DHT22;6647;53.688;10.746;2023-05-19T03:36:42;9.50;99.90
13164;DHT22;6647;53.688;10.746;2023-05-19T03:38:04;9.50;99.90
13164;DHT22;6647;53.688;10.746;2023-05-19T03:39:25;9.50;99.90
13164;DHT22;6647;53.688;10.746;2023-05-19T03:40:46;9.50;99.90
13164;DHT22;6647;53.688;10.746;2023-05-19T03:42:07;9.50;99.90
13164;DHT22;6647;53.688;10.746;2023-05-19T03:43:28;9.50;99.90
13164;DHT22;6647;53.688;10.746;2023-05-19T03:44:49;9.50;99.90
13164;DHT22;6647;53.688;10.746;2023-05-19T03:46:10;9.50;99.90
13164;DHT22;6647;53.688;10.746;2023-05-19T03:47:31;9.50;99.90
13164;DHT22;6647;53.688;10.746;2023-05-19T03:48:51;9.50;99.90
13164;DHT22;6647;53.688;10.746;2023-05-19T03:50:12;9.50;99.90
13164;DHT22;6647;53.688;10.746;2023-05-19T03:51:33;9.50;99.90
13164;DHT22;6647;53.688;10.746;2023-05-19T03:52:54;9.50;99.90
13164;DHT22;6647;53.688;10.746;2023-05-19T03:54:15;9.50;99.90
13164;DHT22;6647;53.688;10.746;2023-05-19T03:55:36;9.50;99.90
13164;DHT22;6647;53.688;10.746;2023-05-19T03:56:57;9.50;99.90
13164;DHT22;6647;53.688;10.746;2023-05-19T03:58:18;9.50;99.90
13164;DHT22;6647;53.688;10.746;2023-05-19T03:59:39;9.50;99.90
13164;DHT22;6647;53.688;10.746;2023-05-19T04:01:01;9.50;99.90
13164;DHT22;6647;53.688;10.746;2023-05-19T04:02:21;9.50;99.90
13164;DHT22;6647;53.688;10.746;2023-05-19T04:03:42;9.50;99.90
13164;DHT22;6647;53.688;10.746;2023-05-19T04:05:03;9.60;99.90
13164;DHT22;6647;53.688;10.746;2023-05-19T04:06:24;9.60;99.90
13164;DHT22;6647;53.688;10.746;2023-05-19T04:07:45;9.60;99.90
13164;DHT22;6647;53.688;10.746;2023-05-19T04:09:14;9.50;99.90
13164;DHT22;6647;53.688;10.746;2023-05-19T04:10:35;9.60;99.90
13164;DHT22;6647;53.688;10.746;2023-05-19T04:11:56;9.60;99.90
13164;DHT22;6647;53.688;10.746;2023-05-19T04:13:17;9.60;99.90
13164;DHT22;6647;53.688;10.746;2023-05-19T04:14:38;9.60;99.90
13164;DHT22;6647;53.688;10.746;2023-05-19T04:15:59;9.70;99.90
13164;DHT22;6647;53.688;10.746;2023-05-19T04:17:20;9.70;99.90
13164;DHT22;6647;53.688;10.746;2023-05-19T04:18:43;9.70;99.90
13164;DHT22;6647;53.688;10.746;2023-05-19T04:20:06;9.70;99.90
13164;DHT22;6647;53.688;10.746;2023-05-19T04:21:27;9.70;99.90
13164;DHT22;6647;53.688;10.746;2023-05-19T04:22:48;9.70;99.90
13164;DHT22;6647;53.688;10.746;2023-05-19T04:24:08;9.70;99.90
13164;DHT22;6647;53.688;10.746;2023-05-19T04:25:29;9.70;99.90
13164;DHT22;6647;53.688;10.746;2023-05-19T04:26:51;9.70;99.90
13164;DHT22;6647;53.688;10.746;2023-05-19T04:28:11;9.70;99.90
13164;DHT22;6647;53.688;10.746;2023-05-19T04:29:33;9.70;99.90
13164;DHT22;6647;53.688;10.746;2023-05-19T04:30:55;9.70;99.90
13164;DHT22;6647;53.688;10.746;2023-05-19T04:32:18;9.70;99.90
13164;DHT22;6647;53.688;10.746;2023-05-19T04:33:41;9.70;99.90
13164;DHT22;6647;53.688;10.746;2023-05-19T04:35:03;9.70;99.90
13164;DHT22;6647;53.688;10.746;2023-05-19T04:36:24;9.70;99.90
13164;DHT22;6647;53.688;10.746;2023-05-19T04:37:45;9.70;99.90
13164;DHT22;6647;53.688;10.746;2023-05-19T04:39:06;9.70;99.90
13164;DHT22;6647;53.688;10.746;2023-05-19T04:40:29;9.80;99.90
13164;DHT22;6647;53.688;10.746;2023-05-19T04:41:50;9.70;99.90
13164;DHT22;6647;53.688;10.746;2023-05-19T04:43:13;9.80;99.90
13164;DHT22;6647;53.688;10.746;2023-05-19T04:44:35;9.80;99.90
13164;DHT22;6647;53.688;10.746;2023-05-19T04:45:57;9.80;99.90
13164;DHT22;6647;53.688;10.746;2023-05-19T04:47:18;9.80;99.90
13164;DHT22;6647;53.688;10.746;2023-05-19T04:48:41;9.80;99.90
13164;DHT22;6647;53.688;10.746;2023-05-19T04:50:02;9.80;99.90
13164;DHT22;6647;53.688;10.746;2023-05-19T04:51:23;9.80;99.90
13164;DHT22;6647;53.688;10.746;2023-05-19T04:52:47;9.80;99.90
13164;DHT22;6647;53.688;10.746;2023-05-19T04:54:08;9.80;99.90
13164;DHT22;6647;53.688;10.746;2023-05-19T04:55:29;9.80;99.90
13164;DHT22;6647;53.688;10.746;2023-05-19T04:56:50;9.80;99.90
13164;DHT22;6647;53.688;10.746;2023-05-19T04:58:11;9.80;99.90
13164;DHT22;6647;53.688;10.746;2023-05-19T04:59:32;9.80;99.90
13164;DHT22;6647;53.688;10.746;2023-05-19T05:00:53;9.80;99.90
13164;DHT22;6647;53.688;10.746;2023-05-19T05:02:20;9.80;99.90
13164;DHT22;6647;53.688;10.746;2023-05-19T05:03:41;9.80;99.90
13164;DHT22;6647;53.688;10.746;2023-05-19T05:05:03;9.80;99.90
13164;DHT22;6647;53.688;10.746;2023-05-19T05:06:25;9.80;99.90
13164;DHT22;6647;53.688;10.746;2023-05-19T05:07:46;9.80;99.90
13164;DHT22;6647;53.688;10.746;2023-05-19T05:09:07;9.90;99.90
13164;DHT22;6647;53.688;10.746;2023-05-19T05:10:28;9.90;99.90
13164;DHT22;6647;53.688;10.746;2023-05-19T05:11:49;9.90;99.90
13164;DHT22;6647;53.688;10.746;2023-05-19T05:13:11;10.00;99.90
13164;DHT22;6647;53.688;10.746;2023-05-19T05:14:32;10.00;99.90
13164;DHT22;6647;53.688;10.746;2023-05-19T05:15:53;9.90;99.90
13164;DHT22;6647;53.688;10.746;2023-05-19T05:17:15;9.90;99.90
13164;DHT22;6647;53.688;10.746;2023-05-19T05:18:37;10.00;99.90
13164;DHT22;6647;53.688;10.746;2023-05-19T05:19:58;10.00;99.90
13164;DHT22;6647;53.688;10.746;2023-05-19T05:21:19;10.00;99.90
13164;DHT22;6647;53.688;10.746;2023-05-19T05:22:40;10.00;99.90
13164;DHT22;6647;53.688;10.746;2023-05-19T05:24:01;10.00;99.90
13164;DHT22;6647;53.688;10.746;2023-05-19T05:25:22;10.00;99.90
13164;DHT22;6647;53.688;10.746;2023-05-19T05:26:44;10.00;99.90
13164;DHT22;6647;53.688;10.746;2023-05-19T05:28:05;10.10;99.90
13164;DHT22;6647;53.688;10.746;2023-05-19T05:29:26;10.00;99.90
13164;DHT22;6647;53.688;10.746;2023-05-19T05:30:47;10.10;99.90
13164;DHT22;6647;53.688;10.746;2023-05-19T05:32:08;10.10;99.90
13164;DHT22;6647;53.688;10.746;2023-05-19T05:33:29;10.10;99.90
13164;DHT22;6647;53.688;10.746;2023-05-19T05:34:50;10.10;99.90
13164;DHT22;6647;53.688;10.746;2023-05-19T05:36:11;10.00;99.90
13164;DHT22;6647;53.688;10.746;2023-05-19T05:37:33;10.10;99.90
13164;DHT22;6647;53.688;10.746;2023-05-19T05:38:54;10.10;99.90
13164;DHT22;6647;53.688;10.746;2023-05-19T05:40:15;10.10;99.90
13164;DHT22;6647;53.688;10.746;2023-05-19T05:41:36;10.10;99.90
13164;DHT22;6647;53.688;10.746;2023-05-19T05:42:56;10.10;99.90
13164;DHT22;6647;53.688;10.746;2023-05-19T05:44:18;10.10;99.90
13164;DHT22;6647;53.688;10.746;2023-05-19T05:45:39;10.10;99.90
13164;DHT22;6647;53.688;10.746;2023-05-19T05:47:01;10.10;99.90
13164;DHT22;6647;53.688;10.746;2023-05-19T05:48:22;10.10;99.90
13164;DHT22;6647;53.688;10.746;2023-05-19T05:49:43;10.10;99.90
13164;DHT22;6647;53.688;10.746;2023-05-19T05:51:08;10.10;99.90
13164;DHT22;6647;53.688;10.746;2023-05-19T05:52:29;10.10;99.90
13164;DHT22;6647;53.688;10.746;2023-05-19T05:53:53;10.10;99.90
13164;DHT22;6647;53.688;10.746;2023-05-19T05:55:15;10.20;99.90
13164;DHT22;6647;53.688;10.746;2023-05-19T05:56:37;10.20;99.90
13164;DHT22;6647;53.688;10.746;2023-05-19T05:57:58;10.20;99.90
13164;DHT22;6647;53.688;10.746;2023-05-19T05:59:21;10.20;99.90
13164;DHT22;6647;53.688;10.746;2023-05-19T06:00:42;10.10;99.90
13164;DHT22;6647;53.688;10.746;2023-05-19T06:02:03;10.20;99.90
13164;DHT22;6647;53.688;10.746;2023-05-19T06:03:24;10.20;99.90
13164;DHT22;6647;53.688;10.746;2023-05-19T06:04:45;10.20;99.90
13164;DHT22;6647;53.688;10.746;2023-05-19T06:06:06;10.20;99.90
13164;DHT22;6647;53.688;10.746;2023-05-19T06:07:27;10.30;99.90
13164;DHT22;6647;53.688;10.746;2023-05-19T06:08:48;10.30;99.90
13164;DHT22;6647;53.688;10.746;2023-05-19T06:10:09;10.30;99.90
13164;DHT22;6647;53.688;10.746;2023-05-19T06:11:29;10.40;99.90
13164;DHT22;6647;53.688;10.746;2023-05-19T06:12:50;10.40;99.90
13164;DHT22;6647;53.688;10.746;2023-05-19T06:14:11;10.40;99.90
13164;DHT22;6647;53.688;10.746;2023-05-19T06:15:32;10.50;99.90
13164;DHT22;6647;53.688;10.746;2023-05-19T06:16:53;10.50;99.90
13164;DHT22;6647;53.688;10.746;2023-05-19T06:18:14;10.50;99.90
13164;DHT22;6647;53.688;10.746;2023-05-19T06:19:35;10.50;99.90
13164;DHT22;6647;53.688;10.746;2023-05-19T06:20:56;10.60;99.90
13164;DHT22;6647;53.688;10.746;2023-05-19T06:22:17;10.50;99.90
13164;DHT22;6647;53.688;10.746;2023-05-19T06:23:39;10.60;99.90
13164;DHT22;6647;53.688;10.746;2023-05-19T06:25:00;10.60;99.90
13164;DHT22;6647;53.688;10.746;2023-05-19T06:26:21;10.60;99.90
13164;DHT22;6647;53.688;10.746;2023-05-19T06:27:42;10.60;99.90
13164;DHT22;6647;53.688;10.746;2023-05-19T06:29:03;10.60;99.90
13164;DHT22;6647;53.688;10.746;2023-05-19T06:30:24;10.60;99.90
13164;DHT22;6647;53.688;10.746;2023-05-19T06:31:45;10.60;99.90
13164;DHT22;6647;53.688;10.746;2023-05-19T06:33:06;10.60;99.90
13164;DHT22;6647;53.688;10.746;2023-05-19T06:34:26;10.70;99.90
13164;DHT22;6647;53.688;10.746;2023-05-19T06:35:47;10.70;99.90
13164;DHT22;6647;53.688;10.746;2023-05-19T06:37:08;10.80;99.90
13164;DHT22;6647;53.688;10.746;2023-05-19T06:38:29;10.80;99.90
13164;DHT22;6647;53.688;10.746;2023-05-19T06:39:52;10.80;99.90
13164;DHT22;6647;53.688;10.746;2023-05-19T06:41:13;10.80;99.90
13164;DHT22;6647;53.688;10.746;2023-05-19T06:42:34;10.80;99.90
13164;DHT22;6647;53.688;10.746;2023-05-19T06:43:54;10.80;99.90
13164;DHT22;6647;53.688;10.746;2023-05-19T06:45:16;10.80;99.90
13164;DHT22;6647;53.688;10.746;2023-05-19T06:46:41;10.80;99.90
13164;DHT22;6647;53.688;10.746;2023-05-19T06:48:02;10.90;99.90
13164;DHT22;6647;53.688;10.746;2023-05-19T06:49:23;10.90;99.90
13164;DHT22;6647;53.688;10.746;2023-05-19T06:50:44;10.90;99.90
13164;DHT22;6647;53.688;10.746;2023-05-19T06:52:05;11.00;99.90
13164;DHT22;6647;53.688;10.746;2023-05-19T06:53:26;11.00;99.90
13164;DHT22;6647;53.688;10.746;2023-05-19T06:54:48;11.00;99.90
13164;DHT22;6647;53.688;10.746;2023-05-19T06:56:09;11.10;99.90
13164;DHT22;6647;53.688;10.746;2023-05-19T06:57:30;11.10;99.90
13164;DHT22;6647;53.688;10.746;2023-05-19T06:58:51;11.10;99.90
13164;DHT22;6647;53.688;10.746;2023-05-19T07:00:12;11.10;99.90
13164;DHT22;6647;53.688;10.746;2023-05-19T07:01:33;11.10;99.90
13164;DHT22;6647;53.688;10.746;2023-05-19T07:02:54;11.10;99.90
13164;DHT22;6647;53.688;10.746;2023-05-19T07:04:15;11.10;99.90
13164;DHT22;6647;53.688;10.746;2023-05-19T07:05:35;11.10;99.90
13164;DHT22;6647;53.688;10.746;2023-05-19T07:06:56;11.10;99.90
13164;DHT22;6647;53.688;10.746;2023-05-19T07:08:18;11.10;99.90
13164;DHT22;6647;53.688;10.746;2023-05-19T07:09:39;11.20;99.90
13164;DHT22;6647;53.688;10.746;2023-05-19T07:11:00;11.20;99.90
13164;DHT22;6647;53.688;10.746;2023-05-19T07:12:21;11.20;99.90
13164;DHT22;6647;53.688;10.746;2023-05-19T07:13:41;11.20;99.90
13164;DHT22;6647;53.688;10.746;2023-05-19T07:15:03;11.20;99.90
13164;DHT22;6647;53.688;10.746;2023-05-19T07:16:23;11.20;99.90
13164;DHT22;6647;53.688;10.746;2023-05-19T07:17:44;11.30;99.90
13164;DHT22;6647;53.688;10.746;2023-05-19T07:19:05;11.30;99.90
13164;DHT22;6647;53.688;10.746;2023-05-19T07:20:26;11.40;99.90
13164;DHT22;6647;53.688;10.746;2023-05-19T07:21:47;11.40;99.90
13164;DHT22;6647;53.688;10.746;2023-05-19T07:23:08;11.40;99.90
13164;DHT22;6647;53.688;10.746;2023-05-19T07:24:29;11.40;99.90
13164;DHT22;6647;53.688;10.746;2023-05-19T07:25:54;11.40;99.90
13164;DHT22;6647;53.688;10.746;2023-05-19T07:27:18;11.40;99.90
13164;DHT22;6647;53.688;10.746;2023-05-19T07:28:39;11.40;99.90
13164;DHT22;6647;53.688;10.746;2023-05-19T07:30:02;11.40;99.90
13164;DHT22;6647;53.688;10.746;2023-05-19T07:31:23;11.40;99.90
13164;DHT22;6647;53.688;10.746;2023-05-19T07:32:44;11.40;99.90
13164;DHT22;6647;53.688;10.746;2023-05-19T07:34:05;11.40;99.90
13164;DHT22;6647;53.688;10.746;2023-05-19T07:35:26;11.40;99.90
13164;DHT22;6647;53.688;10.746;2023-05-19T07:36:47;11.40;99.90
13164;DHT22;6647;53.688;10.746;2023-05-19T07:38:08;11.50;99.90
13164;DHT22;6647;53.688;10.746;2023-05-19T07:39:29;11.50;99.90
13164;DHT22;6647;53.688;10.746;2023-05-19T07:40:51;11.50;99.90
13164;DHT22;6647;53.688;10.746;2023-05-19T07:42:12;11.50;99.90
13164;DHT22;6647;53.688;10.746;2023-05-19T07:43:33;11.60;99.90
13164;DHT22;6647;53.688;10.746;2023-05-19T07:44:54;11.60;99.90
13164;DHT22;6647;53.688;10.746;2023-05-19T07:46:15;11.70;99.90
13164;DHT22;6647;53.688;10.746;2023-05-19T07:47:36;11.70;99.90
13164;DHT22;6647;53.688;10.746;2023-05-19T07:48:57;11.70;99.90
13164;DHT22;6647;53.688;10.746;2023-05-19T07:50:18;11.70;99.90
13164;DHT22;6647;53.688;10.746;2023-05-19T07:51:39;11.70;99.90
13164;DHT22;6647;53.688;10.746;2023-05-19T07:53:01;11.70;99.90
13164;DHT22;6647;53.688;10.746;2023-05-19T07:54:22;11.80;99.90
13164;DHT22;6647;53.688;10.746;2023-05-19T07:55:43;11.80;99.90
13164;DHT22;6647;53.688;10.746;2023-05-19T07:57:04;11.80;99.90
13164;DHT22;6647;53.688;10.746;2023-05-19T07:58:25;11.90;99.90
13164;DHT22;6647;53.688;10.746;2023-05-19T07:59:46;11.90;99.90
13164;DHT22;6647;53.688;10.746;2023-05-19T08:01:07;11.90;99.90
13164;DHT22;6647;53.688;10.746;2023-05-19T08:02:28;12.00;99.90
13164;DHT22;6647;53.688;10.746;2023-05-19T08:03:48;12.00;99.90
13164;DHT22;6647;53.688;10.746;2023-05-19T08:05:09;12.10;99.90
13164;DHT22;6647;53.688;10.746;2023-05-19T08:06:31;12.10;99.90
13164;DHT22;6647;53.688;10.746;2023-05-19T08:07:52;12.20;99.90
13164;DHT22;6647;53.688;10.746;2023-05-19T08:09:12;12.30;99.90
13164;DHT22;6647;53.688;10.746;2023-05-19T08:10:33;12.30;99.90
13164;DHT22;6647;53.688;10.746;2023-05-19T08:11:54;12.40;99.90
13164;DHT22;6647;53.688;10.746;2023-05-19T08:13:15;12.40;99.90
13164;DHT22;6647;53.688;10.746;2023-05-19T08:14:36;12.50;99.90
13164;DHT22;6647;53.688;10.746;2023-05-19T08:15:57;12.60;99.90
13164;DHT22;6647;53.688;10.746;2023-05-19T08:17:19;12.60;99.90
13164;DHT22;6647;53.688;10.746;2023-05-19T08:18:40;12.60;99.90
13164;DHT22;6647;53.688;10.746;2023-05-19T08:20:01;12.70;99.90
13164;DHT22;6647;53.688;10.746;2023-05-19T08:21:23;12.80;99.90
13164;DHT22;6647;53.688;10.746;2023-05-19T08:22:44;12.80;99.90
13164;DHT22;6647;53.688;10.746;2023-05-19T08:24:05;12.80;99.90
13164;DHT22;6647;53.688;10.746;2023-05-19T08:25:26;12.90;99.90
13164;DHT22;6647;53.688;10.746;2023-05-19T08:26:47;12.90;99.90
13164;DHT22;6647;53.688;10.746;2023-05-19T08:28:08;13.00;99.90
13164;DHT22;6647;53.688;10.746;2023-05-19T08:29:32;13.00;99.90
13164;DHT22;6647;53.688;10.746;2023-05-19T08:30:53;13.00;99.90
13164;DHT22;6647;53.688;10.746;2023-05-19T08:32:13;13.10;99.90
13164;DHT22;6647;53.688;10.746;2023-05-19T08:33:34;13.10;99.90
13164;DHT22;6647;53.688;10.746;2023-05-19T08:34:55;13.20;99.90
13164;DHT22;6647;53.688;10.746;2023-05-19T08:36:17;13.20;99.90
13164;DHT22;6647;53.688;10.746;2023-05-19T08:37:38;13.30;99.90
13164;DHT22;6647;53.688;10.746;2023-05-19T08:38:58;13.30;99.90
13164;DHT22;6647;53.688;10.746;2023-05-19T08:40:20;13.40;99.90
13164;DHT22;6647;53.688;10.746;2023-05-19T08:41:41;13.40;99.90
13164;DHT22;6647;53.688;10.746;2023-05-19T08:43:02;13.40;99.90
13164;DHT22;6647;53.688;10.746;2023-05-19T08:44:23;13.50;99.90
13164;DHT22;6647;53.688;10.746;2023-05-19T08:45:44;13.50;99.90
13164;DHT22;6647;53.688;10.746;2023-05-19T08:47:08;13.60;99.90
13164;DHT22;6647;53.688;10.746;2023-05-19T08:48:34;13.70;99.90
13164;DHT22;6647;53.688;10.746;2023-05-19T08:50:03;13.70;99.90
13164;DHT22;6647;53.688;10.746;2023-05-19T08:51:40;13.80;99.90
13164;DHT22;6647;53.688;10.746;2023-05-19T08:53:14;13.90;99.90
13164;DHT22;6647;53.688;10.746;2023-05-19T08:54:44;14.00;99.90
13164;DHT22;6647;53.688;10.746;2023-05-19T08:56:15;14.00;99.90